sensor_id;sensor_type;location;lat;lon;timestamp;P1;durP1;ratioP1;P2;durP2;ratioP2
5060;SDS011;2549;52.128;21.068;2023-07-09T00:01:48;5.87;;;4.40;;
5060;SDS011;2549;52.128;21.068;2023-07-09T00:04:16;7.07;;;4.20;;
5060;SDS011;2549;52.128;21.068;2023-07-09T00:06:43;9.63;;;4.13;;
5060;SDS011;2549;52.128;21.068;2023-07-09T00:09:12;6.80;;;4.33;;
5060;SDS011;2549;52.128;21.068;2023-07-09T00:11:41;4.47;;;3.70;;
5060;SDS011;2549;52.128;21.068;2023-07-09T00:14:11;9.47;;;4.17;;
5060;SDS011;2549;52.128;21.068;2023-07-09T00:16:39;6.80;;;4.30;;
5060;SDS011;2549;52.128;21.068;2023-07-09T00:19:18;4.60;;;4.20;;
5060;SDS011;2549;52.128;21.068;2023-07-09T00:21:49;9.50;;;4.30;;
5060;SDS011;2549;52.128;21.068;2023-07-09T00:24:20;4.93;;;4.13;;
5060;SDS011;2549;52.128;21.068;2023-07-09T00:26:46;6.77;;;4.90;;
5060;SDS011;2549;52.128;21.068;2023-07-09T00:29:15;6.53;;;3.90;;
5060;SDS011;2549;52.128;21.068;2023-07-09T00:31:42;5.60;;;3.90;;
5060;SDS011;2549;52.128;21.068;2023-07-09T00:34:13;5.13;;;3.93;;
5060;SDS011;2549;52.128;21.068;2023-07-09T00:36:43;10.47;;;3.90;;
5060;SDS011;2549;52.128;21.068;2023-07-09T00:39:17;6.90;;;4.40;;
5060;SDS011;2549;52.128;21.068;2023-07-09T00:41:45;10.27;;;4.40;;
5060;SDS011;2549;52.128;21.068;2023-07-09T00:51:59;5.00;;;3.83;;
5060;SDS011;2549;52.128;21.068;2023-07-09T00:54:36;6.13;;;3.77;;
5060;SDS011;2549;52.128;21.068;2023-07-09T00:57:12;4.43;;;4.07;;
5060;SDS011;2549;52.128;21.068;2023-07-09T00:59:45;6.70;;;4.40;;
5060;SDS011;2549;52.128;21.068;2023-07-09T01:02:20;11.77;;;3.83;;
5060;SDS011;2549;52.128;21.068;2023-07-09T01:04:53;5.87;;;4.07;;
5060;SDS011;2549;52.128;21.068;2023-07-09T01:07:28;3.90;;;3.60;;
5060;SDS011;2549;52.128;21.068;2023-07-09T01:09:55;4.33;;;3.97;;
5060;SDS011;2549;52.128;21.068;2023-07-09T01:12:22;8.53;;;4.47;;
5060;SDS011;2549;52.128;21.068;2023-07-09T01:14:49;4.57;;;3.80;;
5060;SDS011;2549;52.128;21.068;2023-07-09T01:17:19;7.63;;;3.77;;
5060;SDS011;2549;52.128;21.068;2023-07-09T01:19:49;6.37;;;3.57;;
5060;SDS011;2549;52.128;21.068;2023-07-09T01:22:17;26.77;;;4.50;;
5060;SDS011;2549;52.128;21.068;2023-07-09T01:27:17;6.80;;;3.57;;
5060;SDS011;2549;52.128;21.068;2023-07-09T01:29:46;6.07;;;3.30;;
5060;SDS011;2549;52.128;21.068;2023-07-09T01:32:15;4.87;;;4.37;;
5060;SDS011;2549;52.128;21.068;2023-07-09T01:34:49;6.07;;;3.93;;
5060;SDS011;2549;52.128;21.068;2023-07-09T01:37:21;8.23;;;4.27;;
5060;SDS011;2549;52.128;21.068;2023-07-09T01:39:51;4.30;;;3.37;;
5060;SDS011;2549;52.128;21.068;2023-07-09T01:42:19;4.30;;;3.70;;
5060;SDS011;2549;52.128;21.068;2023-07-09T01:44:49;6.13;;;3.83;;
5060;SDS011;2549;52.128;21.068;2023-07-09T01:47:17;8.53;;;3.90;;
5060;SDS011;2549;52.128;21.068;2023-07-09T01:49:44;4.43;;;3.80;;
5060;SDS011;2549;52.128;21.068;2023-07-09T01:52:16;4.07;;;3.67;;
5060;SDS011;2549;52.128;21.068;2023-07-09T01:54:45;7.37;;;3.93;;
5060;SDS011;2549;52.128;21.068;2023-07-09T01:57:20;6.13;;;4.07;;
5060;SDS011;2549;52.128;21.068;2023-07-09T01:59:52;5.00;;;3.53;;
5060;SDS011;2549;52.128;21.068;2023-07-09T02:02:21;5.93;;;3.70;;
5060;SDS011;2549;52.128;21.068;2023-07-09T02:04:50;5.63;;;3.80;;
5060;SDS011;2549;52.128;21.068;2023-07-09T02:07:24;5.50;;;3.80;;
5060;SDS011;2549;52.128;21.068;2023-07-09T02:09:53;3.60;;;3.30;;
5060;SDS011;2549;52.128;21.068;2023-07-09T02:12:20;3.27;;;2.90;;
5060;SDS011;2549;52.128;21.068;2023-07-09T02:14:47;4.83;;;3.50;;
5060;SDS011;2549;52.128;21.068;2023-07-09T02:17:14;9.20;;;3.57;;
5060;SDS011;2549;52.128;21.068;2023-07-09T02:19:42;5.27;;;3.77;;
5060;SDS011;2549;52.128;21.068;2023-07-09T02:22:10;5.13;;;3.30;;
5060;SDS011;2549;52.128;21.068;2023-07-09T02:24:38;6.23;;;3.80;;
5060;SDS011;2549;52.128;21.068;2023-07-09T02:27:06;6.43;;;3.80;;
5060;SDS011;2549;52.128;21.068;2023-07-09T02:29:36;7.33;;;3.90;;
5060;SDS011;2549;52.128;21.068;2023-07-09T02:32:04;4.20;;;3.50;;
5060;SDS011;2549;52.128;21.068;2023-07-09T02:34:32;5.17;;;4.60;;
5060;SDS011;2549;52.128;21.068;2023-07-09T02:36:58;4.20;;;3.80;;
5060;SDS011;2549;52.128;21.068;2023-07-09T02:39:26;9.30;;;4.23;;
5060;SDS011;2549;52.128;21.068;2023-07-09T02:41:53;4.10;;;3.50;;
5060;SDS011;2549;52.128;21.068;2023-07-09T02:44:20;3.70;;;3.40;;
5060;SDS011;2549;52.128;21.068;2023-07-09T02:46:47;4.53;;;3.63;;
5060;SDS011;2549;52.128;21.068;2023-07-09T02:49:14;3.90;;;3.47;;
5060;SDS011;2549;52.128;21.068;2023-07-09T02:51:42;8.20;;;3.50;;
5060;SDS011;2549;52.128;21.068;2023-07-09T02:54:09;4.20;;;3.60;;
5060;SDS011;2549;52.128;21.068;2023-07-09T02:56:35;4.07;;;3.40;;
5060;SDS011;2549;52.128;21.068;2023-07-09T02:59:02;4.03;;;3.53;;
5060;SDS011;2549;52.128;21.068;2023-07-09T03:01:29;5.40;;;3.53;;
5060;SDS011;2549;52.128;21.068;2023-07-09T03:03:57;6.60;;;3.67;;
5060;SDS011;2549;52.128;21.068;2023-07-09T03:06:26;4.30;;;3.43;;
5060;SDS011;2549;52.128;21.068;2023-07-09T03:08:54;8.27;;;3.87;;
5060;SDS011;2549;52.128;21.068;2023-07-09T03:11:21;4.50;;;3.53;;
5060;SDS011;2549;52.128;21.068;2023-07-09T03:13:48;4.23;;;3.27;;
5060;SDS011;2549;52.128;21.068;2023-07-09T03:16:15;5.17;;;3.80;;
5060;SDS011;2549;52.128;21.068;2023-07-09T03:18:42;5.20;;;3.53;;
5060;SDS011;2549;52.128;21.068;2023-07-09T03:21:09;5.67;;;3.20;;
5060;SDS011;2549;52.128;21.068;2023-07-09T03:23:36;5.70;;;3.43;;
5060;SDS011;2549;52.128;21.068;2023-07-09T03:26:03;10.13;;;4.10;;
5060;SDS011;2549;52.128;21.068;2023-07-09T03:28:31;7.90;;;4.37;;
5060;SDS011;2549;52.128;21.068;2023-07-09T03:30:59;19.60;;;4.80;;
5060;SDS011;2549;52.128;21.068;2023-07-09T03:33:26;4.73;;;3.90;;
5060;SDS011;2549;52.128;21.068;2023-07-09T03:35:53;4.30;;;3.37;;
5060;SDS011;2549;52.128;21.068;2023-07-09T03:38:19;3.80;;;3.50;;
5060;SDS011;2549;52.128;21.068;2023-07-09T03:40:49;7.00;;;4.40;;
5060;SDS011;2549;52.128;21.068;2023-07-09T03:43:20;3.50;;;3.20;;
5060;SDS011;2549;52.128;21.068;2023-07-09T03:45:48;9.00;;;3.67;;
5060;SDS011;2549;52.128;21.068;2023-07-09T03:48:16;11.03;;;4.00;;
5060;SDS011;2549;52.128;21.068;2023-07-09T03:50:45;5.77;;;3.80;;
5060;SDS011;2549;52.128;21.068;2023-07-09T03:53:13;4.33;;;3.50;;
5060;SDS011;2549;52.128;21.068;2023-07-09T03:55:41;4.73;;;3.57;;
5060;SDS011;2549;52.128;21.068;2023-07-09T03:58:08;5.80;;;3.53;;
5060;SDS011;2549;52.128;21.068;2023-07-09T04:00:35;6.10;;;3.60;;
5060;SDS011;2549;52.128;21.068;2023-07-09T04:03:02;3.40;;;3.10;;
5060;SDS011;2549;52.128;21.068;2023-07-09T04:05:29;4.73;;;3.50;;
5060;SDS011;2549;52.128;21.068;2023-07-09T04:07:56;5.30;;;3.43;;
5060;SDS011;2549;52.128;21.068;2023-07-09T04:10:23;5.10;;;2.90;;
5060;SDS011;2549;52.128;21.068;2023-07-09T04:12:49;3.90;;;3.43;;
5060;SDS011;2549;52.128;21.068;2023-07-09T04:15:16;4.30;;;3.60;;
5060;SDS011;2549;52.128;21.068;2023-07-09T04:17:43;4.70;;;3.43;;
5060;SDS011;2549;52.128;21.068;2023-07-09T04:20:10;4.03;;;3.00;;
5060;SDS011;2549;52.128;21.068;2023-07-09T04:22:37;8.93;;;3.80;;
5060;SDS011;2549;52.128;21.068;2023-07-09T04:25:05;15.60;;;3.50;;
5060;SDS011;2549;52.128;21.068;2023-07-09T04:27:33;6.33;;;3.20;;
5060;SDS011;2549;52.128;21.068;2023-07-09T04:30:00;7.70;;;3.17;;
5060;SDS011;2549;52.128;21.068;2023-07-09T04:32:27;4.70;;;3.07;;
5060;SDS011;2549;52.128;21.068;2023-07-09T04:34:54;3.43;;;3.07;;
5060;SDS011;2549;52.128;21.068;2023-07-09T04:37:21;5.33;;;4.20;;
5060;SDS011;2549;52.128;21.068;2023-07-09T04:39:47;6.67;;;4.87;;
5060;SDS011;2549;52.128;21.068;2023-07-09T04:42:16;5.30;;;3.23;;
5060;SDS011;2549;52.128;21.068;2023-07-09T04:44:44;4.50;;;2.87;;
5060;SDS011;2549;52.128;21.068;2023-07-09T04:47:11;7.80;;;3.00;;
5060;SDS011;2549;52.128;21.068;2023-07-09T04:49:39;9.80;;;3.43;;
5060;SDS011;2549;52.128;21.068;2023-07-09T04:52:06;5.20;;;2.90;;
5060;SDS011;2549;52.128;21.068;2023-07-09T04:54:33;5.40;;;3.03;;
5060;SDS011;2549;52.128;21.068;2023-07-09T04:57:00;7.07;;;4.40;;
5060;SDS011;2549;52.128;21.068;2023-07-09T04:59:28;3.70;;;3.40;;
5060;SDS011;2549;52.128;21.068;2023-07-09T05:01:55;2.33;;;2.20;;
5060;SDS011;2549;52.128;21.068;2023-07-09T05:04:22;2.37;;;2.20;;
5060;SDS011;2549;52.128;21.068;2023-07-09T05:06:49;3.33;;;2.40;;
5060;SDS011;2549;52.128;21.068;2023-07-09T05:09:15;5.40;;;2.80;;
5060;SDS011;2549;52.128;21.068;2023-07-09T05:11:42;9.83;;;3.73;;
5060;SDS011;2549;52.128;21.068;2023-07-09T05:14:09;2.73;;;2.53;;
5060;SDS011;2549;52.128;21.068;2023-07-09T05:16:36;3.50;;;2.70;;
5060;SDS011;2549;52.128;21.068;2023-07-09T05:19:03;4.50;;;3.10;;
5060;SDS011;2549;52.128;21.068;2023-07-09T05:21:29;3.43;;;2.50;;
5060;SDS011;2549;52.128;21.068;2023-07-09T05:23:56;2.60;;;2.40;;
5060;SDS011;2549;52.128;21.068;2023-07-09T05:26:23;4.03;;;2.57;;
5060;SDS011;2549;52.128;21.068;2023-07-09T05:28:50;3.67;;;2.63;;
5060;SDS011;2549;52.128;21.068;2023-07-09T05:31:17;2.70;;;2.50;;
5060;SDS011;2549;52.128;21.068;2023-07-09T05:33:44;2.53;;;2.33;;
5060;SDS011;2549;52.128;21.068;2023-07-09T05:36:11;9.43;;;2.20;;
5060;SDS011;2549;52.128;21.068;2023-07-09T05:38:42;7.80;;;2.43;;
5060;SDS011;2549;52.128;21.068;2023-07-09T05:41:10;4.10;;;2.07;;
5060;SDS011;2549;52.128;21.068;2023-07-09T05:43:36;2.60;;;2.10;;
5060;SDS011;2549;52.128;21.068;2023-07-09T05:46:04;4.10;;;2.17;;
5060;SDS011;2549;52.128;21.068;2023-07-09T05:48:32;6.10;;;2.57;;
5060;SDS011;2549;52.128;21.068;2023-07-09T05:50:59;2.70;;;2.07;;
5060;SDS011;2549;52.128;21.068;2023-07-09T05:53:26;2.30;;;2.20;;
5060;SDS011;2549;52.128;21.068;2023-07-09T05:55:54;3.10;;;1.53;;
5060;SDS011;2549;52.128;21.068;2023-07-09T05:58:22;2.83;;;2.23;;
5060;SDS011;2549;52.128;21.068;2023-07-09T06:00:49;2.90;;;2.17;;
5060;SDS011;2549;52.128;21.068;2023-07-09T06:03:46;2.80;;;2.00;;
5060;SDS011;2549;52.128;21.068;2023-07-09T06:06:13;2.70;;;1.90;;
5060;SDS011;2549;52.128;21.068;2023-07-09T06:08:40;2.70;;;1.90;;
5060;SDS011;2549;52.128;21.068;2023-07-09T06:11:06;6.53;;;2.40;;
5060;SDS011;2549;52.128;21.068;2023-07-09T06:13:33;1.70;;;1.60;;
5060;SDS011;2549;52.128;21.068;2023-07-09T06:16:00;3.43;;;2.27;;
5060;SDS011;2549;52.128;21.068;2023-07-09T06:18:28;3.20;;;2.03;;
5060;SDS011;2549;52.128;21.068;2023-07-09T06:20:57;6.53;;;2.43;;
5060;SDS011;2549;52.128;21.068;2023-07-09T06:23:26;1.80;;;1.70;;
5060;SDS011;2549;52.128;21.068;2023-07-09T06:25:53;2.40;;;2.20;;
5060;SDS011;2549;52.128;21.068;2023-07-09T06:28:22;3.00;;;1.97;;
5060;SDS011;2549;52.128;21.068;2023-07-09T06:30:50;3.70;;;2.00;;
5060;SDS011;2549;52.128;21.068;2023-07-09T06:33:18;2.63;;;2.17;;
5060;SDS011;2549;52.128;21.068;2023-07-09T06:35:46;2.50;;;2.10;;
5060;SDS011;2549;52.128;21.068;2023-07-09T06:38:15;4.83;;;2.60;;
5060;SDS011;2549;52.128;21.068;2023-07-09T06:40:45;2.17;;;1.97;;
5060;SDS011;2549;52.128;21.068;2023-07-09T06:43:12;2.20;;;2.00;;
5060;SDS011;2549;52.128;21.068;2023-07-09T06:45:47;4.60;;;2.20;;
5060;SDS011;2549;52.128;21.068;2023-07-09T06:48:19;4.50;;;1.83;;
5060;SDS011;2549;52.128;21.068;2023-07-09T06:50:46;2.13;;;1.93;;
5060;SDS011;2549;52.128;21.068;2023-07-09T06:53:14;4.70;;;2.40;;
5060;SDS011;2549;52.128;21.068;2023-07-09T06:55:41;4.93;;;2.07;;
5060;SDS011;2549;52.128;21.068;2023-07-09T06:58:08;2.30;;;2.10;;
5060;SDS011;2549;52.128;21.068;2023-07-09T07:00:35;1.80;;;1.70;;
5060;SDS011;2549;52.128;21.068;2023-07-09T07:03:03;5.77;;;2.07;;
5060;SDS011;2549;52.128;21.068;2023-07-09T07:05:32;2.60;;;2.00;;
5060;SDS011;2549;52.128;21.068;2023-07-09T07:07:59;2.80;;;1.80;;
5060;SDS011;2549;52.128;21.068;2023-07-09T07:10:27;3.27;;;2.10;;
5060;SDS011;2549;52.128;21.068;2023-07-09T07:12:54;4.60;;;2.30;;
5060;SDS011;2549;52.128;21.068;2023-07-09T07:15:21;3.47;;;2.20;;
5060;SDS011;2549;52.128;21.068;2023-07-09T07:17:48;31.73;;;2.40;;
5060;SDS011;2549;52.128;21.068;2023-07-09T07:20:15;2.50;;;1.80;;
5060;SDS011;2549;52.128;21.068;2023-07-09T07:22:43;6.30;;;2.17;;
5060;SDS011;2549;52.128;21.068;2023-07-09T07:25:10;2.10;;;2.00;;
5060;SDS011;2549;52.128;21.068;2023-07-09T07:27:37;2.93;;;2.10;;
5060;SDS011;2549;52.128;21.068;2023-07-09T07:30:05;6.60;;;2.10;;
5060;SDS011;2549;52.128;21.068;2023-07-09T07:32:37;1.93;;;1.70;;
5060;SDS011;2549;52.128;21.068;2023-07-09T07:35:05;2.97;;;1.80;;
5060;SDS011;2549;52.128;21.068;2023-07-09T07:37:34;2.43;;;2.07;;
5060;SDS011;2549;52.128;21.068;2023-07-09T07:40:01;3.27;;;1.90;;
5060;SDS011;2549;52.128;21.068;2023-07-09T07:42:31;4.00;;;2.07;;
5060;SDS011;2549;52.128;21.068;2023-07-09T07:44:58;3.67;;;1.80;;
5060;SDS011;2549;52.128;21.068;2023-07-09T07:47:25;3.50;;;2.10;;
5060;SDS011;2549;52.128;21.068;2023-07-09T07:49:54;4.07;;;2.83;;
5060;SDS011;2549;52.128;21.068;2023-07-09T07:52:21;1.47;;;1.47;;
5060;SDS011;2549;52.128;21.068;2023-07-09T07:54:48;2.10;;;1.90;;
5060;SDS011;2549;52.128;21.068;2023-07-09T07:57:15;4.10;;;1.90;;
5060;SDS011;2549;52.128;21.068;2023-07-09T07:59:42;5.53;;;2.23;;
5060;SDS011;2549;52.128;21.068;2023-07-09T08:02:11;2.07;;;1.97;;
5060;SDS011;2549;52.128;21.068;2023-07-09T08:04:40;3.23;;;2.20;;
5060;SDS011;2549;52.128;21.068;2023-07-09T08:07:09;1.63;;;1.53;;
5060;SDS011;2549;52.128;21.068;2023-07-09T08:09:37;3.30;;;2.30;;
5060;SDS011;2549;52.128;21.068;2023-07-09T08:12:05;3.90;;;2.10;;
5060;SDS011;2549;52.128;21.068;2023-07-09T08:14:42;3.83;;;2.10;;
5060;SDS011;2549;52.128;21.068;2023-07-09T08:17:10;3.20;;;1.97;;
5060;SDS011;2549;52.128;21.068;2023-07-09T08:19:48;2.87;;;1.40;;
5060;SDS011;2549;52.128;21.068;2023-07-09T08:22:16;9.50;;;2.10;;
5060;SDS011;2549;52.128;21.068;2023-07-09T08:24:47;2.90;;;1.70;;
5060;SDS011;2549;52.128;21.068;2023-07-09T08:27:15;2.50;;;1.63;;
5060;SDS011;2549;52.128;21.068;2023-07-09T08:29:42;7.00;;;2.10;;
5060;SDS011;2549;52.128;21.068;2023-07-09T08:32:09;2.10;;;1.87;;
5060;SDS011;2549;52.128;21.068;2023-07-09T08:34:38;2.17;;;1.50;;
5060;SDS011;2549;52.128;21.068;2023-07-09T08:37:26;3.00;;;1.70;;
5060;SDS011;2549;52.128;21.068;2023-07-09T08:39:53;1.83;;;1.73;;
5060;SDS011;2549;52.128;21.068;2023-07-09T08:42:29;3.63;;;1.90;;
5060;SDS011;2549;52.128;21.068;2023-07-09T08:50:36;8.93;;;2.03;;
5060;SDS011;2549;52.128;21.068;2023-07-09T08:53:07;2.37;;;1.33;;
5060;SDS011;2549;52.128;21.068;2023-07-09T08:55:45;1.57;;;1.30;;
5060;SDS011;2549;52.128;21.068;2023-07-09T08:58:23;2.40;;;1.10;;
5060;SDS011;2549;52.128;21.068;2023-07-09T09:00:55;7.77;;;1.70;;
5060;SDS011;2549;52.128;21.068;2023-07-09T09:06:21;1.50;;;1.40;;
5060;SDS011;2549;52.128;21.068;2023-07-09T09:14:26;0.93;;;0.93;;
5060;SDS011;2549;52.128;21.068;2023-07-09T09:16:58;1.40;;;1.03;;
5060;SDS011;2549;52.128;21.068;2023-07-09T09:19:34;1.30;;;1.30;;
5060;SDS011;2549;52.128;21.068;2023-07-09T09:22:09;3.90;;;1.53;;
5060;SDS011;2549;52.128;21.068;2023-07-09T09:27:36;1.00;;;1.00;;
5060;SDS011;2549;52.128;21.068;2023-07-09T09:30:04;1.73;;;1.00;;
5060;SDS011;2549;52.128;21.068;2023-07-09T09:32:42;2.53;;;1.20;;
5060;SDS011;2549;52.128;21.068;2023-07-09T09:35:12;1.20;;;1.10;;
5060;SDS011;2549;52.128;21.068;2023-07-09T09:37:44;2.60;;;1.00;;
5060;SDS011;2549;52.128;21.068;2023-07-09T09:40:17;1.33;;;1.20;;
5060;SDS011;2549;52.128;21.068;2023-07-09T09:42:48;1.10;;;1.00;;
5060;SDS011;2549;52.128;21.068;2023-07-09T09:45:17;1.33;;;0.90;;
5060;SDS011;2549;52.128;21.068;2023-07-09T09:47:47;2.50;;;1.27;;
5060;SDS011;2549;52.128;21.068;2023-07-09T09:50:15;1.27;;;0.93;;
5060;SDS011;2549;52.128;21.068;2023-07-09T09:52:44;0.90;;;0.90;;
5060;SDS011;2549;52.128;21.068;2023-07-09T09:55:23;1.20;;;1.17;;
5060;SDS011;2549;52.128;21.068;2023-07-09T09:57:52;1.20;;;1.10;;
5060;SDS011;2549;52.128;21.068;2023-07-09T10:00:27;1.47;;;1.40;;
5060;SDS011;2549;52.128;21.068;2023-07-09T10:03:00;1.73;;;1.30;;
5060;SDS011;2549;52.128;21.068;2023-07-09T10:05:32;4.20;;;1.13;;
5060;SDS011;2549;52.128;21.068;2023-07-09T10:10:53;1.07;;;1.07;;
5060;SDS011;2549;52.128;21.068;2023-07-09T10:13:34;1.13;;;1.13;;
5060;SDS011;2549;52.128;21.068;2023-07-09T10:21:51;0.90;;;0.90;;
5060;SDS011;2549;52.128;21.068;2023-07-09T10:32:56;1.43;;;0.87;;
5060;SDS011;2549;52.128;21.068;2023-07-09T10:35:38;0.80;;;0.70;;
5060;SDS011;2549;52.128;21.068;2023-07-09T10:38:32;0.80;;;0.80;;
5060;SDS011;2549;52.128;21.068;2023-07-09T10:41:12;3.13;;;1.33;;
5060;SDS011;2549;52.128;21.068;2023-07-09T10:43:44;1.00;;;1.00;;
5060;SDS011;2549;52.128;21.068;2023-07-09T10:46:16;2.50;;;1.07;;
5060;SDS011;2549;52.128;21.068;2023-07-09T10:48:47;1.10;;;1.00;;
5060;SDS011;2549;52.128;21.068;2023-07-09T10:51:30;0.80;;;0.80;;
5060;SDS011;2549;52.128;21.068;2023-07-09T10:54:55;1.10;;;0.90;;
5060;SDS011;2549;52.128;21.068;2023-07-09T10:57:34;6.43;;;1.37;;
5060;SDS011;2549;52.128;21.068;2023-07-09T10:59:55;2.80;;;1.10;;
5060;SDS011;2549;52.128;21.068;2023-07-09T11:02:25;1.00;;;1.00;;
5060;SDS011;2549;52.128;21.068;2023-07-09T11:05:04;0.80;;;0.80;;
5060;SDS011;2549;52.128;21.068;2023-07-09T11:10:38;1.07;;;0.93;;
5060;SDS011;2549;52.128;21.068;2023-07-09T11:13:10;1.53;;;0.90;;
5060;SDS011;2549;52.128;21.068;2023-07-09T11:15:43;0.97;;;0.97;;
5060;SDS011;2549;52.128;21.068;2023-07-09T11:18:24;0.83;;;0.83;;
5060;SDS011;2549;52.128;21.068;2023-07-09T11:21:27;0.90;;;0.87;;
5060;SDS011;2549;52.128;21.068;2023-07-09T11:23:53;8.13;;;1.37;;
5060;SDS011;2549;52.128;21.068;2023-07-09T11:26:23;6.53;;;1.33;;
5060;SDS011;2549;52.128;21.068;2023-07-09T11:29:16;1.53;;;1.17;;
5060;SDS011;2549;52.128;21.068;2023-07-09T11:31:45;1.10;;;1.00;;
5060;SDS011;2549;52.128;21.068;2023-07-09T11:36:48;1.23;;;0.90;;
5060;SDS011;2549;52.128;21.068;2023-07-09T11:39:23;1.77;;;1.00;;
5060;SDS011;2549;52.128;21.068;2023-07-09T11:42:02;2.60;;;1.07;;
5060;SDS011;2549;52.128;21.068;2023-07-09T11:44:30;2.10;;;1.20;;
5060;SDS011;2549;52.128;21.068;2023-07-09T11:50:03;1.40;;;1.20;;
5060;SDS011;2549;52.128;21.068;2023-07-09T11:52:37;5.67;;;1.10;;
5060;SDS011;2549;52.128;21.068;2023-07-09T11:57:55;3.60;;;1.10;;
5060;SDS011;2549;52.128;21.068;2023-07-09T12:00:24;1.10;;;1.00;;
5060;SDS011;2549;52.128;21.068;2023-07-09T12:03:35;0.80;;;0.80;;
5060;SDS011;2549;52.128;21.068;2023-07-09T12:06:12;0.97;;;0.97;;
5060;SDS011;2549;52.128;21.068;2023-07-09T12:08:46;2.00;;;1.20;;
5060;SDS011;2549;52.128;21.068;2023-07-09T12:11:26;1.17;;;1.03;;
5060;SDS011;2549;52.128;21.068;2023-07-09T12:14:12;1.30;;;1.10;;
5060;SDS011;2549;52.128;21.068;2023-07-09T12:16:42;1.40;;;1.30;;
5060;SDS011;2549;52.128;21.068;2023-07-09T12:19:20;0.80;;;0.80;;
5060;SDS011;2549;52.128;21.068;2023-07-09T12:21:55;0.87;;;0.70;;
5060;SDS011;2549;52.128;21.068;2023-07-09T12:24:24;1.00;;;0.90;;
5060;SDS011;2549;52.128;21.068;2023-07-09T12:26:53;3.20;;;0.90;;
5060;SDS011;2549;52.128;21.068;2023-07-09T12:29:28;1.10;;;1.10;;
5060;SDS011;2549;52.128;21.068;2023-07-09T12:31:59;0.73;;;0.73;;
5060;SDS011;2549;52.128;21.068;2023-07-09T12:34:32;0.97;;;0.97;;
5060;SDS011;2549;52.128;21.068;2023-07-09T12:36:59;1.00;;;1.00;;
5060;SDS011;2549;52.128;21.068;2023-07-09T12:39:27;1.10;;;1.03;;
5060;SDS011;2549;52.128;21.068;2023-07-09T12:42:01;0.90;;;0.90;;
5060;SDS011;2549;52.128;21.068;2023-07-09T12:44:33;1.80;;;0.90;;
5060;SDS011;2549;52.128;21.068;2023-07-09T12:47:02;0.93;;;0.93;;
5060;SDS011;2549;52.128;21.068;2023-07-09T12:49:36;1.10;;;0.90;;
5060;SDS011;2549;52.128;21.068;2023-07-09T12:52:11;4.37;;;1.30;;
5060;SDS011;2549;52.128;21.068;2023-07-09T12:54:56;0.80;;;0.80;;
5060;SDS011;2549;52.128;21.068;2023-07-09T12:57:25;1.07;;;1.07;;
5060;SDS011;2549;52.128;21.068;2023-07-09T12:59:53;1.03;;;1.00;;
5060;SDS011;2549;52.128;21.068;2023-07-09T13:02:25;1.10;;;1.10;;
5060;SDS011;2549;52.128;21.068;2023-07-09T13:05:01;0.93;;;0.90;;
5060;SDS011;2549;52.128;21.068;2023-07-09T13:07:36;1.17;;;1.10;;
5060;SDS011;2549;52.128;21.068;2023-07-09T13:10:15;1.00;;;0.90;;
5060;SDS011;2549;52.128;21.068;2023-07-09T13:12:54;1.03;;;0.93;;
5060;SDS011;2549;52.128;21.068;2023-07-09T13:18:03;1.03;;;1.00;;
5060;SDS011;2549;52.128;21.068;2023-07-09T13:20:32;5.50;;;1.27;;
5060;SDS011;2549;52.128;21.068;2023-07-09T13:23:12;1.67;;;1.23;;
5060;SDS011;2549;52.128;21.068;2023-07-09T13:25:46;1.20;;;1.20;;
5060;SDS011;2549;52.128;21.068;2023-07-09T13:30:44;2.50;;;1.73;;
5060;SDS011;2549;52.128;21.068;2023-07-09T13:33:11;1.13;;;1.13;;
5060;SDS011;2549;52.128;21.068;2023-07-09T13:35:38;2.17;;;1.30;;
5060;SDS011;2549;52.128;21.068;2023-07-09T13:38:12;1.10;;;1.10;;
5060;SDS011;2549;52.128;21.068;2023-07-09T13:40:41;1.27;;;1.20;;
5060;SDS011;2549;52.128;21.068;2023-07-09T13:43:14;2.17;;;1.00;;
5060;SDS011;2549;52.128;21.068;2023-07-09T13:45:45;1.10;;;1.10;;
5060;SDS011;2549;52.128;21.068;2023-07-09T13:48:15;1.17;;;1.00;;
5060;SDS011;2549;52.128;21.068;2023-07-09T13:50:44;1.30;;;0.97;;
5060;SDS011;2549;52.128;21.068;2023-07-09T13:53:15;1.00;;;1.00;;
5060;SDS011;2549;52.128;21.068;2023-07-09T13:55:43;1.30;;;1.20;;
5060;SDS011;2549;52.128;21.068;2023-07-09T13:58:12;1.50;;;1.40;;
5060;SDS011;2549;52.128;21.068;2023-07-09T14:00:41;1.43;;;1.00;;
5060;SDS011;2549;52.128;21.068;2023-07-09T14:03:14;1.20;;;1.20;;
5060;SDS011;2549;52.128;21.068;2023-07-09T14:05:49;1.20;;;1.10;;
5060;SDS011;2549;52.128;21.068;2023-07-09T14:08:16;1.07;;;0.97;;
5060;SDS011;2549;52.128;21.068;2023-07-09T14:10:45;1.00;;;1.00;;
5060;SDS011;2549;52.128;21.068;2023-07-09T14:13:14;1.60;;;1.50;;
5060;SDS011;2549;52.128;21.068;2023-07-09T14:15:42;2.17;;;1.40;;
5060;SDS011;2549;52.128;21.068;2023-07-09T14:18:14;1.10;;;1.10;;
5060;SDS011;2549;52.128;21.068;2023-07-09T14:20:44;2.17;;;1.23;;
5060;SDS011;2549;52.128;21.068;2023-07-09T14:23:12;1.90;;;1.10;;
5060;SDS011;2549;52.128;21.068;2023-07-09T14:25:41;5.33;;;1.07;;
5060;SDS011;2549;52.128;21.068;2023-07-09T14:28:19;1.00;;;1.00;;
5060;SDS011;2549;52.128;21.068;2023-07-09T14:30:48;1.13;;;1.13;;
5060;SDS011;2549;52.128;21.068;2023-07-09T14:33:18;1.50;;;1.00;;
5060;SDS011;2549;52.128;21.068;2023-07-09T14:35:46;7.90;;;1.37;;
5060;SDS011;2549;52.128;21.068;2023-07-09T14:38:16;1.40;;;1.30;;
5060;SDS011;2549;52.128;21.068;2023-07-09T14:40:49;2.20;;;1.10;;
5060;SDS011;2549;52.128;21.068;2023-07-09T14:43:18;6.93;;;1.60;;
5060;SDS011;2549;52.128;21.068;2023-07-09T14:45:47;1.43;;;1.33;;
5060;SDS011;2549;52.128;21.068;2023-07-09T14:48:16;1.87;;;1.40;;
5060;SDS011;2549;52.128;21.068;2023-07-09T14:50:44;1.27;;;1.27;;
5060;SDS011;2549;52.128;21.068;2023-07-09T14:53:22;1.30;;;1.20;;
5060;SDS011;2549;52.128;21.068;2023-07-09T14:55:55;1.10;;;1.00;;
5060;SDS011;2549;52.128;21.068;2023-07-09T14:58:23;1.50;;;1.40;;
5060;SDS011;2549;52.128;21.068;2023-07-09T15:00:55;1.20;;;1.20;;
5060;SDS011;2549;52.128;21.068;2023-07-09T15:03:23;1.10;;;1.10;;
5060;SDS011;2549;52.128;21.068;2023-07-09T15:05:51;8.13;;;1.10;;
5060;SDS011;2549;52.128;21.068;2023-07-09T15:08:22;1.30;;;1.23;;
5060;SDS011;2549;52.128;21.068;2023-07-09T15:10:50;1.40;;;1.37;;
5060;SDS011;2549;52.128;21.068;2023-07-09T15:13:40;1.00;;;1.00;;
5060;SDS011;2549;52.128;21.068;2023-07-09T15:16:08;1.00;;;0.93;;
5060;SDS011;2549;52.128;21.068;2023-07-09T15:18:35;2.13;;;1.73;;
5060;SDS011;2549;52.128;21.068;2023-07-09T15:21:03;1.23;;;0.90;;
5060;SDS011;2549;52.128;21.068;2023-07-09T15:23:31;1.57;;;1.50;;
5060;SDS011;2549;52.128;21.068;2023-07-09T15:26:12;1.40;;;1.30;;
5060;SDS011;2549;52.128;21.068;2023-07-09T15:28:42;2.33;;;1.20;;
5060;SDS011;2549;52.128;21.068;2023-07-09T15:31:10;1.87;;;1.13;;
5060;SDS011;2549;52.128;21.068;2023-07-09T15:33:37;1.10;;;1.00;;
5060;SDS011;2549;52.128;21.068;2023-07-09T15:36:08;1.33;;;1.23;;
5060;SDS011;2549;52.128;21.068;2023-07-09T15:38:37;1.20;;;1.20;;
5060;SDS011;2549;52.128;21.068;2023-07-09T15:41:13;1.07;;;1.00;;
5060;SDS011;2549;52.128;21.068;2023-07-09T15:43:41;1.20;;;1.10;;
5060;SDS011;2549;52.128;21.068;2023-07-09T15:46:12;1.77;;;1.40;;
5060;SDS011;2549;52.128;21.068;2023-07-09T15:48:46;1.37;;;1.10;;
5060;SDS011;2549;52.128;21.068;2023-07-09T15:51:14;1.20;;;1.20;;
5060;SDS011;2549;52.128;21.068;2023-07-09T15:53:40;1.73;;;1.30;;
5060;SDS011;2549;52.128;21.068;2023-07-09T15:58:48;1.27;;;1.20;;
5060;SDS011;2549;52.128;21.068;2023-07-09T16:01:17;1.30;;;1.30;;
5060;SDS011;2549;52.128;21.068;2023-07-09T16:03:48;1.10;;;1.10;;
5060;SDS011;2549;52.128;21.068;2023-07-09T16:06:17;1.40;;;1.40;;
5060;SDS011;2549;52.128;21.068;2023-07-09T16:08:45;1.30;;;1.20;;
5060;SDS011;2549;52.128;21.068;2023-07-09T16:11:21;1.70;;;1.20;;
5060;SDS011;2549;52.128;21.068;2023-07-09T16:13:49;1.60;;;1.43;;
5060;SDS011;2549;52.128;21.068;2023-07-09T16:16:21;1.43;;;1.33;;
5060;SDS011;2549;52.128;21.068;2023-07-09T16:18:50;1.10;;;1.10;;
5060;SDS011;2549;52.128;21.068;2023-07-09T16:21:22;1.63;;;1.53;;
5060;SDS011;2549;52.128;21.068;2023-07-09T16:23:51;1.27;;;1.17;;